Crescent Mills, California
Current Conditions -  °F | °C
As of 11:53 PM on Saturday 20 Dec 2014 (Local Time) from KOVE Reporting Station
Overcast Overcast  
Wind Chill: 54°   Ceiling: 2500
Heat Index: 54°   Visibility: 10mi
Dew Point: 51°   Wind: 9mph
Humidity: 90%   Direction: 100°E
Pressure: 30.25"   Gusts: NA
Location:  40.1°N, 120.91°W
Report Text: KOVE 210753Z AUTO 10008KT 10SM OVC025 12/11 A3025 RMK AO2 SLP247 T01220106 401330111
Loading
Personal Weather Stations






























Interactive Weather Map New forecast layout! Learn more

10-Day Weather Forecast

Advertisements
Track Severe Weather on mobile